Shives, Arkansas
Current Conditions -  °F | °C
As of 3:53 PM on Monday 26 Jan 2015 (Local Time) from KGLH Reporting Station
Clear Clear  
Wind Chill: 53°   Ceiling: Unl
Heat Index: 53°   Visibility: 8mi
Dew Point: 34°   Wind: 10mph
Humidity: 48%   Direction: 220°SW
Pressure: 30.02"   Gusts: NA
Location:  33.3324°N, 91.3183°W
Report Text: KGLH 262153Z AUTO 22009KT 8SM CLR 12/01 A3002 RMK AO2 SLP175 T01170011
Loading
Personal Weather Stations






























Interactive Weather Map New forecast layout! Learn more

10-Day Weather Forecast

Advertisements
Track Severe Weather on mobile